sensor_id;sensor_type;location;lat;lon;timestamp;pressure;altitude;pressure_sealevel;temperature;humidity
77227;BME280;66234;47.642;19.144;2024-02-23T00:02:20;98958.31;;;9.92;65.91
77227;BME280;66234;47.642;19.144;2024-02-23T00:05:24;98960.88;;;9.87;66.31
77227;BME280;66234;47.642;19.144;2024-02-23T00:08:27;98958.44;;;9.85;66.63
77227;BME280;66234;47.642;19.144;2024-02-23T00:11:29;98952.31;;;9.85;66.56
77227;BME280;66234;47.642;19.144;2024-02-23T00:14:33;98964.03;;;9.72;67.49
77227;BME280;66234;47.642;19.144;2024-02-23T00:17:40;98954.38;;;9.71;67.25
77227;BME280;66234;47.642;19.144;2024-02-23T00:20:42;98956.03;;;9.72;67.39
77227;BME280;66234;47.642;19.144;2024-02-23T00:23:45;98957.41;;;9.75;67.31
77227;BME280;66234;47.642;19.144;2024-02-23T00:26:48;98957.28;;;9.81;67.11
77227;BME280;66234;47.642;19.144;2024-02-23T00:29:53;98948.94;;;9.78;66.95
77227;BME280;66234;47.642;19.144;2024-02-23T00:32:55;98949.03;;;9.83;66.67
77227;BME280;66234;47.642;19.144;2024-02-23T00:35:59;98941.59;;;9.96;66.31
77227;BME280;66234;47.642;19.144;2024-02-23T00:39:02;98950.53;;;9.90;66.24
77227;BME280;66234;47.642;19.144;2024-02-23T00:42:05;98939.97;;;9.95;66.16
77227;BME280;66234;47.642;19.144;2024-02-23T00:45:08;98945.66;;;9.99;65.96
77227;BME280;66234;47.642;19.144;2024-02-23T00:48:15;98939.28;;;10.00;65.86
77227;BME280;66234;47.642;19.144;2024-02-23T00:51:18;98939.03;;;10.01;65.77
77227;BME280;66234;47.642;19.144;2024-02-23T00:54:21;98944.59;;;10.00;66.16
77227;BME280;66234;47.642;19.144;2024-02-23T00:57:24;98939.50;;;9.98;66.54
77227;BME280;66234;47.642;19.144;2024-02-23T01:00:32;98933.22;;;10.04;66.36
77227;BME280;66234;47.642;19.144;2024-02-23T01:03:35;98932.53;;;10.09;66.43
77227;BME280;66234;47.642;19.144;2024-02-23T01:06:38;98925.34;;;10.10;66.61
77227;BME280;66234;47.642;19.144;2024-02-23T01:09:41;98920.84;;;10.10;67.16
77227;BME280;66234;47.642;19.144;2024-02-23T01:12:44;98913.63;;;10.11;67.72
77227;BME280;66234;47.642;19.144;2024-02-23T01:15:47;98910.59;;;10.07;68.66
77227;BME280;66234;47.642;19.144;2024-02-23T01:18:51;98903.41;;;10.08;68.74
77227;BME280;66234;47.642;19.144;2024-02-23T01:21:54;98897.25;;;10.07;69.02
77227;BME280;66234;47.642;19.144;2024-02-23T01:25:02;98896.41;;;10.07;69.62
77227;BME280;66234;47.642;19.144;2024-02-23T01:28:06;98896.56;;;10.12;69.33
77227;BME280;66234;47.642;19.144;2024-02-23T01:31:09;98890.50;;;10.16;69.17
77227;BME280;66234;47.642;19.144;2024-02-23T01:34:15;98879.00;;;10.16;68.90
77227;BME280;66234;47.642;19.144;2024-02-23T01:37:18;98884.09;;;10.17;69.85
77227;BME280;66234;47.642;19.144;2024-02-23T01:40:24;98888.56;;;10.12;70.77
77227;BME280;66234;47.642;19.144;2024-02-23T01:43:27;98880.97;;;10.09;71.58
77227;BME280;66234;47.642;19.144;2024-02-23T01:46:33;98878.75;;;10.05;72.34
77227;BME280;66234;47.642;19.144;2024-02-23T01:49:38;98878.44;;;10.02;73.96
77227;BME280;66234;47.642;19.144;2024-02-23T01:52:40;98887.88;;;9.93;75.00
77227;BME280;66234;47.642;19.144;2024-02-23T01:55:45;98887.53;;;9.89;75.68
77227;BME280;66234;47.642;19.144;2024-02-23T01:58:48;98880.78;;;9.87;77.10
77227;BME280;66234;47.642;19.144;2024-02-23T02:01:51;98895.53;;;9.78;78.23
77227;BME280;66234;47.642;19.144;2024-02-23T02:04:54;98891.50;;;9.64;79.79
77227;BME280;66234;47.642;19.144;2024-02-23T02:07:57;98885.59;;;9.50;81.58
77227;BME280;66234;47.642;19.144;2024-02-23T02:11:03;98888.28;;;9.39;83.24
77227;BME280;66234;47.642;19.144;2024-02-23T02:14:06;98888.63;;;9.31;84.54
77227;BME280;66234;47.642;19.144;2024-02-23T02:17:09;98887.22;;;9.28;84.57
77227;BME280;66234;47.642;19.144;2024-02-23T02:20:14;98885.25;;;9.24;85.03
77227;BME280;66234;47.642;19.144;2024-02-23T02:23:16;98887.34;;;9.22;85.88
77227;BME280;66234;47.642;19.144;2024-02-23T02:26:19;98894.41;;;9.16;86.35
77227;BME280;66234;47.642;19.144;2024-02-23T02:29:22;98891.16;;;9.14;87.33
77227;BME280;66234;47.642;19.144;2024-02-23T02:32:24;98888.72;;;9.13;87.11
77227;BME280;66234;47.642;19.144;2024-02-23T02:35:27;98887.56;;;9.09;87.92
77227;BME280;66234;47.642;19.144;2024-02-23T02:38:30;98893.13;;;9.07;87.89
77227;BME280;66234;47.642;19.144;2024-02-23T02:41:32;98896.84;;;9.06;89.27
77227;BME280;66234;47.642;19.144;2024-02-23T02:44:35;98893.72;;;9.09;88.89
77227;BME280;66234;47.642;19.144;2024-02-23T02:47:38;98893.81;;;9.03;89.62
77227;BME280;66234;47.642;19.144;2024-02-23T02:50:43;98897.06;;;9.05;90.16
77227;BME280;66234;47.642;19.144;2024-02-23T02:53:46;98894.88;;;9.02;90.92
77227;BME280;66234;47.642;19.144;2024-02-23T02:56:49;98901.00;;;9.02;91.29
77227;BME280;66234;47.642;19.144;2024-02-23T02:59:53;98903.53;;;8.97;92.26
77227;BME280;66234;47.642;19.144;2024-02-23T03:02:56;98901.69;;;8.98;92.78
77227;BME280;66234;47.642;19.144;2024-02-23T03:05:59;98897.63;;;8.95;94.17
77227;BME280;66234;47.642;19.144;2024-02-23T03:09:02;98912.44;;;8.91;94.91
77227;BME280;66234;47.642;19.144;2024-02-23T03:12:05;98909.78;;;8.91;96.15
77227;BME280;66234;47.642;19.144;2024-02-23T03:15:08;98898.19;;;8.86;97.65
77227;BME280;66234;47.642;19.144;2024-02-23T03:18:13;98904.06;;;8.76;98.87
77227;BME280;66234;47.642;19.144;2024-02-23T03:21:18;98912.06;;;8.76;99.79
77227;BME280;66234;47.642;19.144;2024-02-23T03:24:21;98910.53;;;8.69;100.00
77227;BME280;66234;47.642;19.144;2024-02-23T03:27:28;98907.28;;;8.67;100.00
77227;BME280;66234;47.642;19.144;2024-02-23T03:30:31;98910.84;;;8.61;100.00
77227;BME280;66234;47.642;19.144;2024-02-23T03:33:37;98904.38;;;8.57;100.00
77227;BME280;66234;47.642;19.144;2024-02-23T03:36:40;98910.59;;;8.51;100.00
77227;BME280;66234;47.642;19.144;2024-02-23T03:39:43;98912.06;;;8.47;100.00
77227;BME280;66234;47.642;19.144;2024-02-23T03:42:45;98908.63;;;8.46;100.00
77227;BME280;66234;47.642;19.144;2024-02-23T03:45:48;98902.47;;;8.46;100.00
77227;BME280;66234;47.642;19.144;2024-02-23T03:48:51;98904.53;;;8.44;100.00
77227;BME280;66234;47.642;19.144;2024-02-23T03:51:54;98905.59;;;8.43;100.00
77227;BME280;66234;47.642;19.144;2024-02-23T03:54:59;98910.00;;;8.49;100.00
77227;BME280;66234;47.642;19.144;2024-02-23T03:58:01;98908.63;;;8.46;100.00
77227;BME280;66234;47.642;19.144;2024-02-23T04:01:04;98912.53;;;8.44;100.00
77227;BME280;66234;47.642;19.144;2024-02-23T04:04:07;98910.53;;;8.39;100.00
77227;BME280;66234;47.642;19.144;2024-02-23T04:07:10;98903.16;;;8.41;100.00
77227;BME280;66234;47.642;19.144;2024-02-23T04:10:12;98906.38;;;8.43;100.00
77227;BME280;66234;47.642;19.144;2024-02-23T04:13:19;98904.53;;;8.44;100.00
77227;BME280;66234;47.642;19.144;2024-02-23T04:16:23;98908.63;;;8.46;100.00
77227;BME280;66234;47.642;19.144;2024-02-23T04:19:27;98909.19;;;8.48;100.00
77227;BME280;66234;47.642;19.144;2024-02-23T04:22:29;98905.16;;;8.57;100.00
77227;BME280;66234;47.642;19.144;2024-02-23T04:25:32;98898.81;;;8.58;100.00
77227;BME280;66234;47.642;19.144;2024-02-23T04:28:38;98905.75;;;8.59;100.00
77227;BME280;66234;47.642;19.144;2024-02-23T04:31:40;98903.56;;;8.56;100.00
77227;BME280;66234;47.642;19.144;2024-02-23T04:34:43;98904.38;;;8.57;100.00
77227;BME280;66234;47.642;19.144;2024-02-23T04:37:45;98904.81;;;8.54;100.00
77227;BME280;66234;47.642;19.144;2024-02-23T04:40:49;98900.84;;;8.45;100.00
77227;BME280;66234;47.642;19.144;2024-02-23T04:43:52;98908.84;;;8.45;100.00
77227;BME280;66234;47.642;19.144;2024-02-23T04:47:04;98905.97;;;8.46;100.00
77227;BME280;66234;47.642;19.144;2024-02-23T04:50:08;98904.53;;;8.44;100.00
77227;BME280;66234;47.642;19.144;2024-02-23T04:53:11;98906.91;;;8.52;100.00
77227;BME280;66234;47.642;19.144;2024-02-23T04:56:13;98910.38;;;8.52;100.00
77227;BME280;66234;47.642;19.144;2024-02-23T04:59:16;98909.34;;;8.53;100.00
77227;BME280;66234;47.642;19.144;2024-02-23T05:02:18;98908.50;;;8.53;100.00
77227;BME280;66234;47.642;19.144;2024-02-23T05:05:21;98910.72;;;8.56;100.00
77227;BME280;66234;47.642;19.144;2024-02-23T05:08:25;98914.81;;;8.58;100.00
77227;BME280;66234;47.642;19.144;2024-02-23T05:11:29;98920.91;;;8.59;100.00
77227;BME280;66234;47.642;19.144;2024-02-23T05:14:32;98924.41;;;8.59;100.00
77227;BME280;66234;47.642;19.144;2024-02-23T05:17:35;98925.78;;;8.62;100.00
77227;BME280;66234;47.642;19.144;2024-02-23T05:20:38;98932.75;;;8.63;100.00
77227;BME280;66234;47.642;19.144;2024-02-23T05:23:41;98938.78;;;8.58;100.00
77227;BME280;66234;47.642;19.144;2024-02-23T05:26:46;98947.41;;;8.72;100.00
77227;BME280;66234;47.642;19.144;2024-02-23T05:29:49;98952.31;;;8.86;100.00
77227;BME280;66234;47.642;19.144;2024-02-23T05:32:51;98962.16;;;8.97;100.00
77227;BME280;66234;47.642;19.144;2024-02-23T05:35:54;98964.97;;;9.02;100.00
77227;BME280;66234;47.642;19.144;2024-02-23T05:38:56;98975.09;;;9.12;99.44
77227;BME280;66234;47.642;19.144;2024-02-23T05:41:59;98979.97;;;9.15;98.99
77227;BME280;66234;47.642;19.144;2024-02-23T05:45:03;98978.47;;;9.19;98.24
77227;BME280;66234;47.642;19.144;2024-02-23T05:48:11;98988.56;;;9.17;99.83
77227;BME280;66234;47.642;19.144;2024-02-23T05:51:14;98993.91;;;9.17;99.45
77227;BME280;66234;47.642;19.144;2024-02-23T05:54:16;99001.06;;;9.16;100.00
77227;BME280;66234;47.642;19.144;2024-02-23T05:57:19;99007.69;;;9.14;100.00
77227;BME280;66234;47.642;19.144;2024-02-23T06:00:22;99011.03;;;9.09;100.00
77227;BME280;66234;47.642;19.144;2024-02-23T06:03:25;99022.16;;;9.06;100.00
77227;BME280;66234;47.642;19.144;2024-02-23T06:06:28;99025.06;;;9.05;100.00
77227;BME280;66234;47.642;19.144;2024-02-23T06:09:31;99030.25;;;9.00;100.00
77227;BME280;66234;47.642;19.144;2024-02-23T06:12:34;99035.06;;;8.91;100.00
77227;BME280;66234;47.642;19.144;2024-02-23T06:15:37;99037.72;;;8.91;100.00
77227;BME280;66234;47.642;19.144;2024-02-23T06:18:41;99032.28;;;8.86;100.00
77227;BME280;66234;47.642;19.144;2024-02-23T06:21:47;99042.25;;;8.91;100.00
77227;BME280;66234;47.642;19.144;2024-02-23T06:24:51;99038.19;;;8.88;100.00
77227;BME280;66234;47.642;19.144;2024-02-23T06:27:58;99045.38;;;8.88;100.00
77227;BME280;66234;47.642;19.144;2024-02-23T06:31:01;99052.56;;;8.87;100.00
77227;BME280;66234;47.642;19.144;2024-02-23T06:34:07;99059.28;;;8.90;100.00
77227;BME280;66234;47.642;19.144;2024-02-23T06:37:10;99054.63;;;8.85;100.00
77227;BME280;66234;47.642;19.144;2024-02-23T06:40:13;99053.47;;;8.81;100.00
77227;BME280;66234;47.642;19.144;2024-02-23T06:43:16;99056.78;;;8.77;100.00
77227;BME280;66234;47.642;19.144;2024-02-23T06:46:22;99062.19;;;8.70;100.00
77227;BME280;66234;47.642;19.144;2024-02-23T06:49:25;99059.16;;;8.67;100.00
77227;BME280;66234;47.642;19.144;2024-02-23T06:52:28;99054.50;;;8.62;100.00
77227;BME280;66234;47.642;19.144;2024-02-23T06:55:31;99058.66;;;8.58;100.00
77227;BME280;66234;47.642;19.144;2024-02-23T06:58:34;99062.28;;;8.64;100.00
77227;BME280;66234;47.642;19.144;2024-02-23T07:01:50;99064.34;;;8.62;100.00
77227;BME280;66234;47.642;19.144;2024-02-23T07:04:58;99063.16;;;8.58;100.00
77227;BME280;66234;47.642;19.144;2024-02-23T07:08:01;99074.19;;;8.61;100.00
77227;BME280;66234;47.642;19.144;2024-02-23T07:11:05;99077.25;;;8.65;100.00
77227;BME280;66234;47.642;19.144;2024-02-23T07:14:09;99078.72;;;8.61;100.00
77227;BME280;66234;47.642;19.144;2024-02-23T07:17:12;99082.91;;;8.68;100.00
77227;BME280;66234;47.642;19.144;2024-02-23T07:20:17;99081.47;;;8.72;100.00
77227;BME280;66234;47.642;19.144;2024-02-23T07:23:22;99091.06;;;8.73;100.00
77227;BME280;66234;47.642;19.144;2024-02-23T07:26:25;99084.38;;;8.82;100.00
77227;BME280;66234;47.642;19.144;2024-02-23T07:29:30;99092.09;;;8.90;100.00
77227;BME280;66234;47.642;19.144;2024-02-23T07:32:34;99090.69;;;8.88;100.00
77227;BME280;66234;47.642;19.144;2024-02-23T07:35:40;99090.69;;;8.88;100.00
77227;BME280;66234;47.642;19.144;2024-02-23T07:38:51;99095.13;;;8.94;100.00
77227;BME280;66234;47.642;19.144;2024-02-23T07:41:55;99092.09;;;8.90;100.00
77227;BME280;66234;47.642;19.144;2024-02-23T07:44:58;99082.91;;;8.86;100.00
77227;BME280;66234;47.642;19.144;2024-02-23T07:48:01;99095.91;;;8.94;100.00
77227;BME280;66234;47.642;19.144;2024-02-23T07:51:05;99088.97;;;8.93;100.00
77227;BME280;66234;47.642;19.144;2024-02-23T07:54:10;99098.34;;;8.96;100.00
77227;BME280;66234;47.642;19.144;2024-02-23T07:57:13;99095.16;;;9.05;100.00
77227;BME280;66234;47.642;19.144;2024-02-23T08:00:19;99095.75;;;9.07;100.00
77227;BME280;66234;47.642;19.144;2024-02-23T08:03:24;99098.44;;;9.07;100.00
77227;BME280;66234;47.642;19.144;2024-02-23T08:06:29;99094.84;;;9.13;100.00
77227;BME280;66234;47.642;19.144;2024-02-23T08:09:32;99097.97;;;9.10;100.00
77227;BME280;66234;47.642;19.144;2024-02-23T08:12:38;99095.69;;;9.14;100.00
77227;BME280;66234;47.642;19.144;2024-02-23T08:15:45;99105.66;;;9.18;100.00
77227;BME280;66234;47.642;19.144;2024-02-23T08:18:54;99110.31;;;9.23;100.00
77227;BME280;66234;47.642;19.144;2024-02-23T08:21:56;99105.47;;;9.31;100.00
77227;BME280;66234;47.642;19.144;2024-02-23T08:25:00;99120.69;;;9.31;100.00
77227;BME280;66234;47.642;19.144;2024-02-23T08:28:03;99116.38;;;9.30;100.00
77227;BME280;66234;47.642;19.144;2024-02-23T08:31:05;99120.22;;;9.34;100.00
77227;BME280;66234;47.642;19.144;2024-02-23T08:34:09;99124.97;;;9.32;100.00
77227;BME280;66234;47.642;19.144;2024-02-23T08:37:18;99112.59;;;9.37;100.00
77227;BME280;66234;47.642;19.144;2024-02-23T08:40:24;99121.75;;;9.41;100.00
77227;BME280;66234;47.642;19.144;2024-02-23T08:43:27;99119.91;;;9.42;100.00
77227;BME280;66234;47.642;19.144;2024-02-23T08:46:30;99124.69;;;9.51;100.00
77227;BME280;66234;47.642;19.144;2024-02-23T08:49:33;99131.44;;;9.54;100.00
77227;BME280;66234;47.642;19.144;2024-02-23T08:52:36;99137.59;;;9.54;100.00
77227;BME280;66234;47.642;19.144;2024-02-23T08:55:38;99136.31;;;9.57;100.00
77227;BME280;66234;47.642;19.144;2024-02-23T08:58:41;99130.25;;;9.50;100.00
77227;BME280;66234;47.642;19.144;2024-02-23T09:01:44;99137.59;;;9.54;100.00
77227;BME280;66234;47.642;19.144;2024-02-23T09:04:49;99136.53;;;9.55;100.00
77227;BME280;66234;47.642;19.144;2024-02-23T09:07:51;99134.81;;;9.61;100.00
77227;BME280;66234;47.642;19.144;2024-02-23T09:10:56;99133.88;;;9.67;100.00
77227;BME280;66234;47.642;19.144;2024-02-23T09:13:58;99142.03;;;9.72;100.00
77227;BME280;66234;47.642;19.144;2024-02-23T09:17:03;99134.63;;;9.74;100.00
77227;BME280;66234;47.642;19.144;2024-02-23T09:20:07;99137.06;;;9.75;100.00
77227;BME280;66234;47.642;19.144;2024-02-23T09:23:10;99141.47;;;9.81;100.00
77227;BME280;66234;47.642;19.144;2024-02-23T09:26:17;99147.19;;;9.85;100.00
77227;BME280;66234;47.642;19.144;2024-02-23T09:29:21;99140.44;;;9.82;100.00
77227;BME280;66234;47.642;19.144;2024-02-23T09:32:25;99143.09;;;9.82;100.00
77227;BME280;66234;47.642;19.144;2024-02-23T09:35:29;99146.38;;;9.84;100.00
77227;BME280;66234;47.642;19.144;2024-02-23T09:38:31;99137.66;;;9.77;100.00
77227;BME280;66234;47.642;19.144;2024-02-23T09:41:36;99136.25;;;9.75;100.00
77227;BME280;66234;47.642;19.144;2024-02-23T09:44:44;99137.66;;;9.89;99.57
77227;BME280;66234;47.642;19.144;2024-02-23T09:47:48;99134.31;;;9.93;100.00
77227;BME280;66234;47.642;19.144;2024-02-23T09:50:52;99142.91;;;9.95;100.00
77227;BME280;66234;47.642;19.144;2024-02-23T09:53:56;99150.22;;;10.00;100.00
77227;BME280;66234;47.642;19.144;2024-02-23T09:56:59;99149.16;;;10.01;100.00
77227;BME280;66234;47.642;19.144;2024-02-23T10:00:07;99142.31;;;9.93;98.98
77227;BME280;66234;47.642;19.144;2024-02-23T10:03:14;99152.31;;;9.98;98.79
77227;BME280;66234;47.642;19.144;2024-02-23T10:06:17;99151.16;;;10.05;98.42
77227;BME280;66234;47.642;19.144;2024-02-23T10:09:20;99143.66;;;10.14;97.79
77227;BME280;66234;47.642;19.144;2024-02-23T10:12:25;99153.53;;;10.25;97.58
77227;BME280;66234;47.642;19.144;2024-02-23T10:15:29;99153.66;;;10.30;96.46
77227;BME280;66234;47.642;19.144;2024-02-23T10:18:39;99149.25;;;10.36;96.85
77227;BME280;66234;47.642;19.144;2024-02-23T10:21:42;99163.19;;;10.38;96.01
77227;BME280;66234;47.642;19.144;2024-02-23T10:24:46;99165.84;;;10.49;94.12
77227;BME280;66234;47.642;19.144;2024-02-23T10:27:49;99169.47;;;10.55;92.31
77227;BME280;66234;47.642;19.144;2024-02-23T10:30:53;99170.28;;;10.67;91.29
77227;BME280;66234;47.642;19.144;2024-02-23T10:33:57;99178.75;;;10.64;91.17
77227;BME280;66234;47.642;19.144;2024-02-23T10:37:02;99177.00;;;10.69;90.57
77227;BME280;66234;47.642;19.144;2024-02-23T10:40:14;99177.81;;;10.70;89.94
77227;BME280;66234;47.642;19.144;2024-02-23T10:43:19;99184.22;;;10.69;88.98
77227;BME280;66234;47.642;19.144;2024-02-23T10:46:26;99183.53;;;10.73;89.98
77227;BME280;66234;47.642;19.144;2024-02-23T10:49:31;99179.78;;;10.86;89.77
77227;BME280;66234;47.642;19.144;2024-02-23T10:52:35;99182.56;;;10.91;90.19
77227;BME280;66234;47.642;19.144;2024-02-23T10:55:42;99182.25;;;10.87;89.25
77227;BME280;66234;47.642;19.144;2024-02-23T10:58:50;99183.63;;;10.78;89.49
77227;BME280;66234;47.642;19.144;2024-02-23T11:01:54;99187.47;;;10.71;89.08
77227;BME280;66234;47.642;19.144;2024-02-23T11:05:02;99192.56;;;10.72;89.58
77227;BME280;66234;47.642;19.144;2024-02-23T11:08:08;99186.91;;;10.69;88.95
77227;BME280;66234;47.642;19.144;2024-02-23T11:11:11;99192.00;;;10.70;89.40
77227;BME280;66234;47.642;19.144;2024-02-23T11:14:15;99193.03;;;10.69;88.91
77227;BME280;66234;47.642;19.144;2024-02-23T11:17:19;99188.06;;;10.73;88.33
77227;BME280;66234;47.642;19.144;2024-02-23T11:20:22;99184.19;;;10.80;88.07
77227;BME280;66234;47.642;19.144;2024-02-23T11:23:48;99190.50;;;10.86;88.13
77227;BME280;66234;47.642;19.144;2024-02-23T11:26:59;99195.84;;;10.86;87.98
77227;BME280;66234;47.642;19.144;2024-02-23T11:30:11;99191.06;;;10.88;88.15
77227;BME280;66234;47.642;19.144;2024-02-23T11:33:14;99192.22;;;10.92;88.93
77227;BME280;66234;47.642;19.144;2024-02-23T11:36:30;99184.06;;;10.98;88.73
77227;BME280;66234;47.642;19.144;2024-02-23T11:39:36;99186.13;;;11.08;89.23
77227;BME280;66234;47.642;19.144;2024-02-23T11:42:44;99180.19;;;11.17;89.50
77227;BME280;66234;47.642;19.144;2024-02-23T11:45:49;99178.28;;;11.29;89.48
77227;BME280;66234;47.642;19.144;2024-02-23T11:48:55;99174.94;;;11.22;89.81
77227;BME280;66234;47.642;19.144;2024-02-23T11:52:01;99173.63;;;11.36;90.36
77227;BME280;66234;47.642;19.144;2024-02-23T11:55:04;99168.63;;;11.40;89.86
77227;BME280;66234;47.642;19.144;2024-02-23T11:58:21;99159.69;;;11.51;90.70
77227;BME280;66234;47.642;19.144;2024-02-23T12:01:23;99164.31;;;11.67;90.23
77227;BME280;66234;47.642;19.144;2024-02-23T12:04:27;99156.56;;;11.82;88.72
77227;BME280;66234;47.642;19.144;2024-02-23T12:07:32;99156.16;;;12.07;88.29
77227;BME280;66234;47.642;19.144;2024-02-23T12:10:37;99161.47;;;12.02;86.82
77227;BME280;66234;47.642;19.144;2024-02-23T12:13:40;99166.31;;;11.88;87.76
77227;BME280;66234;47.642;19.144;2024-02-23T12:16:46;99162.88;;;11.76;87.48
77227;BME280;66234;47.642;19.144;2024-02-23T12:20:02;99166.84;;;11.74;86.92
77227;BME280;66234;47.642;19.144;2024-02-23T12:23:06;99156.56;;;11.82;88.69
77227;BME280;66234;47.642;19.144;2024-02-23T12:26:13;99159.16;;;11.77;87.99
77227;BME280;66234;47.642;19.144;2024-02-23T12:29:16;99160.78;;;11.78;88.95
77227;BME280;66234;47.642;19.144;2024-02-23T12:32:20;99162.25;;;11.86;89.10
77227;BME280;66234;47.642;19.144;2024-02-23T12:35:24;99162.63;;;11.78;89.47
77227;BME280;66234;47.642;19.144;2024-02-23T12:38:26;99160.47;;;11.91;89.67
77227;BME280;66234;47.642;19.144;2024-02-23T12:41:29;99159.66;;;11.91;90.23
77227;BME280;66234;47.642;19.144;2024-02-23T12:44:32;99159.09;;;11.89;90.01
77227;BME280;66234;47.642;19.144;2024-02-23T12:47:35;99164.34;;;11.84;90.85
77227;BME280;66234;47.642;19.144;2024-02-23T12:50:38;99152.13;;;11.88;90.49
77227;BME280;66234;47.642;19.144;2024-02-23T12:53:42;99150.88;;;11.79;89.82
77227;BME280;66234;47.642;19.144;2024-02-23T12:56:45;99160.34;;;11.70;90.00
77227;BME280;66234;47.642;19.144;2024-02-23T12:59:48;99162.81;;;11.59;91.56
77227;BME280;66234;47.642;19.144;2024-02-23T13:02:51;99159.22;;;11.54;91.79
77227;BME280;66234;47.642;19.144;2024-02-23T13:05:55;99164.03;;;11.52;92.06
77227;BME280;66234;47.642;19.144;2024-02-23T13:08:58;99160.25;;;11.36;94.24
77227;BME280;66234;47.642;19.144;2024-02-23T13:12:06;99168.16;;;11.31;94.43
77227;BME280;66234;47.642;19.144;2024-02-23T13:15:09;99160.75;;;11.22;96.28
77227;BME280;66234;47.642;19.144;2024-02-23T13:18:12;99166.56;;;11.19;96.02
77227;BME280;66234;47.642;19.144;2024-02-23T13:21:14;99166.81;;;11.17;96.82
77227;BME280;66234;47.642;19.144;2024-02-23T13:24:20;99176.28;;;11.36;96.28
77227;BME280;66234;47.642;19.144;2024-02-23T13:27:25;99175.72;;;11.34;96.12
77227;BME280;66234;47.642;19.144;2024-02-23T13:30:27;99166.31;;;11.32;95.72
77227;BME280;66234;47.642;19.144;2024-02-23T13:33:30;99172.50;;;11.21;97.43
77227;BME280;66234;47.642;19.144;2024-02-23T13:36:33;99161.22;;;11.19;97.20
77227;BME280;66234;47.642;19.144;2024-02-23T13:39:36;99162.41;;;11.11;97.90
77227;BME280;66234;47.642;19.144;2024-02-23T13:42:39;99168.75;;;11.22;97.68
77227;BME280;66234;47.642;19.144;2024-02-23T13:45:49;99158.88;;;11.22;97.18
77227;BME280;66234;47.642;19.144;2024-02-23T13:49:04;99158.78;;;11.17;97.70
77227;BME280;66234;47.642;19.144;2024-02-23T13:52:08;99155.75;;;11.14;98.38
77227;BME280;66234;47.642;19.144;2024-02-23T13:55:10;99149.25;;;11.21;97.74
77227;BME280;66234;47.642;19.144;2024-02-23T13:58:13;99143.19;;;11.26;97.56
77227;BME280;66234;47.642;19.144;2024-02-23T14:01:15;99139.47;;;11.15;96.21
77227;BME280;66234;47.642;19.144;2024-02-23T14:04:18;99140.75;;;11.24;96.87
77227;BME280;66234;47.642;19.144;2024-02-23T14:07:21;99137.00;;;11.25;96.74
77227;BME280;66234;47.642;19.144;2024-02-23T14:10:23;99130.53;;;11.10;97.45
77227;BME280;66234;47.642;19.144;2024-02-23T14:13:26;99139.94;;;11.12;96.75
77227;BME280;66234;47.642;19.144;2024-02-23T14:16:29;99139.03;;;11.07;96.45
77227;BME280;66234;47.642;19.144;2024-02-23T14:19:32;99140.56;;;11.03;96.71
77227;BME280;66234;47.642;19.144;2024-02-23T14:22:37;99143.50;;;11.01;96.97
77227;BME280;66234;47.642;19.144;2024-02-23T14:25:40;99140.00;;;11.01;96.91
77227;BME280;66234;47.642;19.144;2024-02-23T14:28:42;99142.66;;;11.01;96.58
77227;BME280;66234;47.642;19.144;2024-02-23T14:31:45;99148.97;;;10.95;96.39
77227;BME280;66234;47.642;19.144;2024-02-23T14:34:48;99153.13;;;10.91;96.70
77227;BME280;66234;47.642;19.144;2024-02-23T14:37:52;99143.50;;;10.90;96.76
77227;BME280;66234;47.642;19.144;2024-02-23T14:40:55;99136.63;;;10.94;96.08
77227;BME280;66234;47.642;19.144;2024-02-23T14:43:59;99139.88;;;10.96;96.08
77227;BME280;66234;47.642;19.144;2024-02-23T14:47:03;99141.88;;;10.89;96.06
77227;BME280;66234;47.642;19.144;2024-02-23T14:50:06;99137.09;;;10.91;96.08
77227;BME280;66234;47.642;19.144;2024-02-23T14:53:11;99146.66;;;10.87;95.97
77227;BME280;66234;47.642;19.144;2024-02-23T14:56:14;99147.34;;;10.82;96.67
77227;BME280;66234;47.642;19.144;2024-02-23T14:59:17;99136.44;;;10.84;97.06
77227;BME280;66234;47.642;19.144;2024-02-23T15:02:21;99129.81;;;10.75;96.94
77227;BME280;66234;47.642;19.144;2024-02-23T15:05:24;99126.22;;;10.69;95.91
77227;BME280;66234;47.642;19.144;2024-02-23T15:08:27;99124.25;;;10.65;96.76
77227;BME280;66234;47.642;19.144;2024-02-23T15:11:31;99130.41;;;10.65;95.78
77227;BME280;66234;47.642;19.144;2024-02-23T15:14:34;99121.91;;;10.57;95.36
77227;BME280;66234;47.642;19.144;2024-02-23T15:17:38;99121.13;;;10.56;95.55
77227;BME280;66234;47.642;19.144;2024-02-23T15:20:45;99131.81;;;10.56;95.60
77227;BME280;66234;47.642;19.144;2024-02-23T15:23:50;99118.94;;;10.53;95.38
77227;BME280;66234;47.642;19.144;2024-02-23T15:26:53;99120.41;;;10.49;95.75
77227;BME280;66234;47.642;19.144;2024-02-23T15:29:55;99121.25;;;10.50;96.11
77227;BME280;66234;47.642;19.144;2024-02-23T15:32:58;99124.28;;;10.53;95.64
77227;BME280;66234;47.642;19.144;2024-02-23T15:36:01;99118.56;;;10.50;96.78
77227;BME280;66234;47.642;19.144;2024-02-23T15:39:07;99123.31;;;10.48;95.46
77227;BME280;66234;47.642;19.144;2024-02-23T15:42:10;99115.53;;;10.58;93.89
77227;BME280;66234;47.642;19.144;2024-02-23T15:45:13;99121.22;;;10.61;92.49
77227;BME280;66234;47.642;19.144;2024-02-23T15:48:16;99123.88;;;10.61;92.38
77227;BME280;66234;47.642;19.144;2024-02-23T15:51:18;99123.78;;;10.68;91.23
77227;BME280;66234;47.642;19.144;2024-02-23T15:54:41;99120.06;;;10.69;91.22
77227;BME280;66234;47.642;19.144;2024-02-23T15:57:45;99126.78;;;10.71;91.17
77227;BME280;66234;47.642;19.144;2024-02-23T16:00:47;99130.75;;;10.69;91.23
77227;BME280;66234;47.642;19.144;2024-02-23T16:03:51;99134.69;;;10.66;91.83
77227;BME280;66234;47.642;19.144;2024-02-23T16:06:54;99136.31;;;10.79;90.49